Shavano Park, Texas
Current Conditions -  °F | °C
As of 2:51 PM on Friday 19 Dec 2014 (Local Time) from KSAT Reporting Station
Few Clouds Few Clouds  
Wind Chill: 64°   Ceiling: Unl
Heat Index: 64°   Visibility: 10mi
Dew Point: 50°   Wind: 13mph
Humidity: 60%   Direction: 30°NNE
Pressure: 30.07"   Gusts: NA
Location:  29.5766°N, 98.5421°W
Report Text: KSAT 192051Z 03011KT 10SM FEW027 FEW055 18/10 A3007 RMK AO2 SLP170 T01780100 55014
Loading
Personal Weather Stations






























Interactive Weather Map New forecast layout! Learn more

10-Day Weather Forecast

Advertisements
Track Severe Weather on mobile